createdAt,value
2022-08-19T00:01:00.286Z,67.38
2022-08-19T00:06:04.475Z,58.25
2022-08-19T00:11:08.503Z,56.78
2022-08-19T00:16:22.789Z,57.80
2022-08-19T00:21:29.913Z,58.66
2022-08-19T00:26:32.837Z,59.43
2022-08-19T00:31:36.783Z,60.08
2022-08-19T00:36:41.044Z,60.84
2022-08-19T00:41:47.843Z,61.39
2022-08-19T00:46:58.290Z,67.20
2022-08-19T00:52:15.174Z,58.46
2022-08-19T00:57:23.543Z,57.29
2022-08-19T01:02:28.732Z,58.30
2022-08-19T01:07:37.635Z,59.22
2022-08-19T01:12:42.155Z,60.06
2022-08-19T01:17:46.045Z,60.91
2022-08-19T01:22:53.297Z,66.90
2022-08-19T01:27:56.917Z,58.33
2022-08-19T01:33:07.079Z,57.40
2022-08-19T01:38:22.514Z,58.47
2022-08-19T01:43:25.373Z,59.33
2022-08-19T01:48:30.379Z,60.22
2022-08-19T01:53:33.887Z,60.80
2022-08-19T01:58:46.175Z,66.67
2022-08-19T02:03:49.423Z,58.21
2022-08-19T02:08:52.450Z,57.09
2022-08-19T02:14:03.278Z,58.25
2022-08-19T02:19:06.305Z,59.29
2022-08-19T02:24:09.141Z,60.20
2022-08-19T02:29:12.156Z,61.17
2022-08-19T02:34:15.284Z,67.11
2022-08-19T02:39:18.988Z,59.92
2022-08-19T02:44:31.309Z,54.29
2022-08-19T02:49:35.000Z,55.37
2022-08-19T02:54:39.427Z,56.76
2022-08-19T02:59:42.420Z,57.93
2022-08-19T03:04:45.667Z,59.18
2022-08-19T03:09:48.550Z,60.28
2022-08-19T03:14:52.172Z,66.23
2022-08-19T03:19:55.079Z,60.19
2022-08-19T03:24:58.014Z,54.65
2022-08-19T03:30:01.016Z,55.85
2022-08-19T03:35:04.328Z,57.17
2022-08-19T03:40:07.875Z,58.44
2022-08-19T03:45:17.332Z,59.43
2022-08-19T03:50:20.758Z,60.53
2022-08-19T03:55:23.716Z,66.68
2022-08-19T04:00:27.107Z,60.12
2022-08-19T04:05:30.353Z,54.74
2022-08-19T04:10:39.537Z,55.99
2022-08-19T04:15:44.171Z,57.36
2022-08-19T04:20:48.654Z,58.41
2022-08-19T04:25:51.750Z,59.79
2022-08-19T04:30:55.942Z,60.63
2022-08-19T04:35:59.348Z,66.76
2022-08-19T04:41:22.576Z,59.71
2022-08-19T04:46:40.103Z,54.52
2022-08-19T04:51:50.857Z,56.05
2022-08-19T04:56:54.509Z,57.66
2022-08-19T05:01:57.382Z,58.92
2022-08-19T05:07:02.381Z,60.19
2022-08-19T05:12:07.127Z,67.21
2022-08-19T05:22:34.021Z,55.61
2022-08-19T05:27:37.183Z,54.72
2022-08-19T05:32:41.073Z,56.51
2022-08-19T05:37:44.075Z,58.12
2022-08-19T05:42:47.166Z,59.32
2022-08-19T05:47:59.548Z,60.76
2022-08-19T05:53:02.541Z,61.55
2022-08-19T05:58:08.675Z,67.30
2022-08-19T06:03:13.449Z,59.94
2022-08-19T06:08:19.618Z,57.50
2022-08-19T06:13:23.745Z,58.53
2022-08-19T06:18:26.696Z,59.41
2022-08-19T06:23:30.565Z,60.11
2022-08-19T06:28:34.548Z,61.50
2022-08-19T06:33:38.387Z,66.66
2022-08-19T06:38:41.754Z,58.54
2022-08-19T06:43:45.367Z,57.03
2022-08-19T06:48:49.194Z,57.87
2022-08-19T06:53:54.623Z,58.71
2022-08-19T06:58:59.584Z,60.05
2022-08-19T07:04:03.439Z,61.17
2022-08-19T07:09:08.394Z,65.67
2022-08-19T07:14:19.153Z,57.32
2022-08-19T07:19:28.158Z,55.77
2022-08-19T07:24:33.614Z,56.26
2022-08-19T07:29:38.114Z,57.36
2022-08-19T07:34:41.536Z,57.92
2022-08-19T07:39:45.947Z,58.40
2022-08-19T07:44:50.303Z,60.32
2022-08-19T07:49:53.873Z,60.93
2022-08-19T07:54:56.805Z,61.06
2022-08-19T08:00:00.333Z,60.71
2022-08-19T08:05:22.589Z,60.89
2022-08-19T08:10:26.311Z,60.75
2022-08-19T08:15:29.723Z,60.74
2022-08-19T08:20:33.161Z,60.34
2022-08-19T08:25:37.399Z,59.79
2022-08-19T08:30:45.249Z,60.31
2022-08-19T08:35:49.091Z,60.46
2022-08-19T08:41:00.219Z,60.36
2022-08-19T08:46:12.303Z,60.02
2022-08-19T08:51:31.864Z,59.72
2022-08-19T08:56:40.938Z,59.95
2022-08-19T09:01:44.451Z,59.75
2022-08-19T09:07:18.005Z,59.18
2022-08-19T09:12:26.803Z,58.98
2022-08-19T09:17:32.213Z,58.83
2022-08-19T09:22:37.124Z,57.86
2022-08-19T09:27:44.075Z,57.94
2022-08-19T09:32:47.141Z,57.81
2022-08-19T09:37:59.600Z,57.15
2022-08-19T09:43:11.389Z,56.37
2022-08-19T09:48:19.101Z,55.92
2022-08-19T09:53:27.670Z,55.64
2022-08-19T09:58:32.391Z,56.09
2022-08-19T10:03:37.093Z,55.69
2022-08-19T10:08:40.950Z,55.76
2022-08-19T10:13:53.848Z,55.04
2022-08-19T10:18:59.107Z,54.42
2022-08-19T10:24:05.440Z,52.57
2022-08-19T10:29:09.285Z,52.24
2022-08-19T10:34:27.081Z,52.39
2022-08-19T10:39:32.870Z,50.82
2022-08-19T10:44:47.857Z,50.62
2022-08-19T10:50:11.757Z,49.61
2022-08-19T10:55:33.482Z,49.95
2022-08-19T11:00:36.343Z,49.81
2022-08-19T11:05:41.077Z,50.12
2022-08-19T11:10:50.305Z,50.45
2022-08-19T11:16:11.762Z,50.23
2022-08-19T11:21:14.979Z,49.35
2022-08-19T11:26:19.829Z,48.65
2022-08-19T11:31:29.438Z,48.64
2022-08-19T11:36:35.961Z,48.46
2022-08-19T11:41:39.008Z,47.97
2022-08-19T11:46:47.144Z,47.76
2022-08-19T11:51:51.785Z,47.81
2022-08-19T11:56:57.235Z,47.73
2022-08-19T12:02:00.307Z,47.54
2022-08-19T12:07:04.419Z,47.07
2022-08-19T12:12:07.670Z,46.98
2022-08-19T12:17:12.512Z,46.88
2022-08-19T12:22:16.898Z,46.52
2022-08-19T12:27:20.320Z,45.86
2022-08-19T12:32:38.332Z,44.35
2022-08-19T12:37:43.366Z,44.64
2022-08-19T12:42:46.674Z,45.05
2022-08-19T12:47:50.672Z,43.48
2022-08-19T12:52:59.198Z,44.95
2022-08-19T12:58:04.578Z,44.30
2022-08-19T13:03:07.736Z,42.80
2022-08-19T13:08:10.668Z,42.94
2022-08-19T13:13:13.662Z,43.58
2022-08-19T13:18:16.989Z,42.80
2022-08-19T13:23:19.920Z,42.57
2022-08-19T13:28:22.886Z,41.12
2022-08-19T13:33:34.228Z,41.67
2022-08-19T13:38:37.502Z,41.73
2022-08-19T13:43:40.533Z,40.91
2022-08-19T13:48:44.039Z,40.89
2022-08-19T13:53:48.145Z,41.08
2022-08-19T13:58:51.374Z,40.46
2022-08-19T14:03:54.483Z,39.51
2022-08-19T14:08:57.428Z,39.49
2022-08-19T14:14:00.567Z,39.70
2022-08-19T14:19:04.143Z,39.99
2022-08-19T14:24:07.645Z,39.88
2022-08-19T14:29:10.522Z,39.34
2022-08-19T14:34:13.887Z,39.60
2022-08-19T14:39:16.788Z,39.27
2022-08-19T14:44:19.618Z,38.42
2022-08-19T14:49:31.938Z,38.61
2022-08-19T14:54:38.607Z,38.70
2022-08-19T14:59:42.353Z,38.39
2022-08-19T15:04:45.342Z,39.28
2022-08-19T15:09:51.850Z,40.18
2022-08-19T15:14:56.861Z,40.72
2022-08-19T15:20:00.880Z,41.40
2022-08-19T15:25:06.785Z,41.92
2022-08-19T15:30:11.529Z,42.82
2022-08-19T15:35:14.595Z,43.69
2022-08-19T15:40:17.769Z,43.78
2022-08-19T15:45:22.571Z,44.33
2022-08-19T15:50:25.920Z,44.94
2022-08-19T15:55:35.179Z,45.59
2022-08-19T16:00:56.884Z,46.00
2022-08-19T16:06:19.280Z,46.25
2022-08-19T16:11:29.284Z,46.27
2022-08-19T16:16:34.461Z,46.61
2022-08-19T16:21:39.726Z,47.10
2022-08-19T16:26:45.730Z,47.05
2022-08-19T16:31:49.962Z,47.18
2022-08-19T16:36:52.890Z,47.39
2022-08-19T16:41:56.273Z,47.43
2022-08-19T16:47:00.382Z,47.56
2022-08-19T16:52:06.107Z,47.87
2022-08-19T16:57:08.960Z,47.98
2022-08-19T17:02:14.909Z,48.33
2022-08-19T17:07:17.896Z,48.65
2022-08-19T17:12:20.859Z,48.70
2022-08-19T17:17:28.740Z,49.15
2022-08-19T17:22:32.271Z,49.34
2022-08-19T17:27:35.260Z,49.55
2022-08-19T17:32:38.384Z,49.78
2022-08-19T17:37:42.641Z,49.92
2022-08-19T17:42:45.638Z,50.30
2022-08-19T17:47:48.665Z,50.51
2022-08-19T17:52:52.565Z,50.66
2022-08-19T17:57:55.569Z,50.95
2022-08-19T18:03:03.230Z,51.04
2022-08-19T18:08:10.736Z,51.36
2022-08-19T18:13:17.666Z,51.46
2022-08-19T18:18:21.473Z,52.12
2022-08-19T18:23:44.355Z,52.41
2022-08-19T18:28:50.043Z,52.94
2022-08-19T18:33:53.157Z,53.48
2022-08-19T18:39:14.978Z,53.89
2022-08-19T18:44:37.840Z,53.83
2022-08-19T18:49:40.961Z,54.21
2022-08-19T18:54:47.188Z,54.57
2022-08-19T18:59:52.149Z,54.01
2022-08-19T19:04:56.183Z,53.94
2022-08-19T19:09:59.058Z,53.07
2022-08-19T19:15:05.934Z,52.98
2022-08-19T19:20:10.025Z,52.89
2022-08-19T19:25:13.666Z,52.91
2022-08-19T19:30:16.803Z,52.85
2022-08-19T19:35:19.710Z,53.37
2022-08-19T19:40:22.808Z,54.30
2022-08-19T19:45:26.324Z,55.06
2022-08-19T19:50:30.318Z,55.89
2022-08-19T19:55:33.259Z,56.40
2022-08-19T20:00:36.597Z,56.67
2022-08-19T20:05:39.560Z,56.90
2022-08-19T20:10:43.881Z,57.20
2022-08-19T20:15:46.855Z,57.51
2022-08-19T20:20:51.012Z,57.79
2022-08-19T20:25:54.558Z,58.06
2022-08-19T20:30:58.095Z,58.17
2022-08-19T20:36:01.844Z,58.41
2022-08-19T20:41:05.951Z,58.82
2022-08-19T20:46:09.499Z,59.15
2022-08-19T20:51:13.659Z,59.23
2022-08-19T20:56:16.550Z,59.89
2022-08-19T21:01:19.447Z,60.50
2022-08-19T21:06:23.246Z,60.89
2022-08-19T21:11:26.171Z,61.58
2022-08-19T21:16:29.217Z,63.68
2022-08-19T21:21:33.347Z,61.85
2022-08-19T21:26:36.228Z,55.18
2022-08-19T21:31:39.384Z,55.86
2022-08-19T21:36:42.303Z,56.59
2022-08-19T21:41:45.205Z,57.49
2022-08-19T21:46:50.440Z,58.17
2022-08-19T21:51:53.675Z,58.97
2022-08-19T21:56:56.689Z,59.62
2022-08-19T22:02:15.629Z,59.96
2022-08-19T22:07:22.808Z,60.99
2022-08-19T22:12:29.768Z,61.56
2022-08-19T22:17:33.393Z,66.07
2022-08-19T22:22:38.050Z,58.74
2022-08-19T22:27:40.904Z,57.68
2022-08-19T22:32:46.603Z,59.40
2022-08-19T22:37:51.776Z,61.33
2022-08-19T22:43:03.549Z,63.13
2022-08-19T22:48:09.222Z,63.74
2022-08-19T22:53:12.394Z,56.49
2022-08-19T22:58:15.313Z,57.97
2022-08-19T23:03:31.144Z,59.48
2022-08-19T23:08:34.214Z,60.69
2022-08-19T23:13:39.552Z,61.71
2022-08-19T23:18:42.422Z,66.71
2022-08-19T23:23:45.785Z,58.78
2022-08-19T23:29:07.620Z,58.09
2022-08-19T23:34:11.134Z,59.43
2022-08-19T23:39:13.997Z,60.51
2022-08-19T23:44:18.399Z,61.28
2022-08-19T23:49:21.312Z,66.46
2022-08-19T23:54:34.309Z,58.78
2022-08-19T23:59:46.909Z,57.92
